Time;durP1;ratioP1;P1;durP2;ratioP2;P2;SDS_P1;SDS_P2;PMS_P1;PMS_P2;Temp;Humidity;BMP_temperature;BMP_pressure;BME280_temperature;BME280_humidity;BME280_pressure;Samples;Min_cycle;Max_cycle;Signal;HPM_P1;HPM_P2
2020/12/16 00:00:11;;;;;;;32.55;4.45;;;10.30;99.90;;;;;;5052122;28;20538;-50
2020/12/16 00:02:41;;;;;;;22.40;3.25;;;10.40;99.90;;;;;;5088752;28;20039;-49
2020/12/16 00:05:09;;;;;;;29.13;3.97;;;10.40;99.90;;;;;;5068234;28;20499;-50
2020/12/16 00:07:35;;;;;;;28.40;4.13;;;10.30;99.90;;;;;;5068525;28;20040;-48
2020/12/16 00:10:03;;;;;;;27.63;3.45;;;10.30;99.90;;;;;;5068155;28;20040;-49
2020/12/16 00:12:29;;;;;;;30.80;3.88;;;10.30;99.90;;;;;;5068630;28;20044;-48
2020/12/16 00:14:56;;;;;;;21.17;2.97;;;10.30;99.90;;;;;;5068103;28;20154;-50
2020/12/16 00:17:22;;;;;;;25.42;3.17;;;10.20;99.90;;;;;;5068058;28;20458;-48
2020/12/16 00:19:48;;;;;;;33.05;3.83;;;10.20;99.90;;;;;;5068329;28;20029;-49
2020/12/16 00:22:14;;;;;;;29.35;4.13;;;10.20;99.90;;;;;;5068234;28;20056;-52
2020/12/16 00:24:40;;;;;;;30.83;4.35;;;10.10;99.90;;;;;;5067180;28;20039;-48
2020/12/16 00:27:10;;;;;;;27.35;3.67;;;10.10;99.90;;;;;;5067505;28;20120;-50
2020/12/16 00:29:37;;;;;;;34.10;3.92;;;10.10;99.90;;;;;;5099819;28;20211;-49
2020/12/16 00:32:04;;;;;;;21.13;3.05;;;10.20;99.90;;;;;;5108574;28;20055;-50
2020/12/16 00:34:30;;;;;;;30.10;4.95;;;10.20;99.90;;;;;;5077949;28;20159;-48
2020/12/16 00:36:58;;;;;;;24.50;2.90;;;10.30;99.90;;;;;;5067925;28;20130;-50
2020/12/16 00:39:23;;;;;;;23.50;3.40;;;10.20;99.90;;;;;;5068069;28;20099;-53
2020/12/16 00:41:49;;;;;;;18.15;2.85;;;10.20;99.90;;;;;;5067953;28;20391;-50
2020/12/16 00:44:15;;;;;;;24.75;4.10;;;10.20;99.90;;;;;;5067385;28;20032;-50
2020/12/16 00:46:41;;;;;;;26.25;3.45;;;10.20;99.90;;;;;;5067692;28;20601;-49
2020/12/16 00:49:07;;;;;;;28.25;4.00;;;10.10;99.90;;;;;;5069522;28;20043;-49
2020/12/16 00:51:32;;;;;;;32.15;3.75;;;10.20;99.90;;;;;;5067400;28;20439;-49
2020/12/16 00:53:58;;;;;;;21.90;2.67;;;10.10;99.90;;;;;;5067734;28;20040;-50
2020/12/16 00:56:23;;;;;;;27.25;3.80;;;10.10;99.90;;;;;;5067582;28;20112;-48
2020/12/16 00:58:49;;;;;;;24.00;3.47;;;10.10;99.90;;;;;;5067171;28;20623;-50
2020/12/16 01:01:15;;;;;;;23.65;3.00;;;10.10;99.90;;;;;;5067585;28;20024;-49
2020/12/16 01:03:40;;;;;;;34.90;3.55;;;10.10;99.90;;;;;;5067231;28;20047;-49
2020/12/16 01:06:06;;;;;;;23.73;2.92;;;10.20;99.90;;;;;;5067575;28;20114;-50
2020/12/16 01:08:32;;;;;;;30.02;3.22;;;10.10;99.90;;;;;;5067132;28;20429;-50
2020/12/16 01:10:58;;;;;;;40.08;4.18;;;10.10;99.90;;;;;;5067497;28;20040;-48
2020/12/16 01:13:23;;;;;;;27.88;3.15;;;10.10;99.90;;;;;;5069656;28;20041;-50
2020/12/16 01:15:49;;;;;;;24.40;3.13;;;10.20;99.90;;;;;;5067535;28;20040;-50
2020/12/16 01:18:15;;;;;;;29.92;4.85;;;10.20;99.90;;;;;;5067175;28;20035;-50
2020/12/16 01:20:40;;;;;;;26.83;3.38;;;10.20;99.90;;;;;;5049418;28;20037;-50
2020/12/16 01:23:06;;;;;;;30.00;3.72;;;10.20;99.90;;;;;;5067413;28;20454;-50
2020/12/16 01:25:32;;;;;;;30.92;3.85;;;10.20;99.90;;;;;;5067108;28;20043;-50
2020/12/16 01:28:01;;;;;;;34.88;4.25;;;10.20;99.90;;;;;;5067347;28;20478;-51
2020/12/16 01:30:28;;;;;;;30.63;3.30;;;10.10;99.90;;;;;;5067320;28;20122;-51
2020/12/16 01:32:55;;;;;;;22.40;3.45;;;10.10;99.90;;;;;;5067101;28;20117;-50
2020/12/16 01:35:22;;;;;;;22.80;4.28;;;10.10;99.90;;;;;;5067532;28;20036;-51
2020/12/16 01:37:48;;;;;;;22.27;3.90;;;10.20;99.90;;;;;;5067038;28;20025;-51
2020/12/16 01:40:16;;;;;;;32.83;3.75;;;10.10;99.90;;;;;;5069602;28;20340;-50
2020/12/16 01:42:42;;;;;;;40.53;5.03;;;10.10;99.90;;;;;;5071321;28;20024;-52
2020/12/16 01:45:12;;;;;;;33.60;3.38;;;10.10;99.90;;;;;;5070705;28;20364;-51
2020/12/16 01:47:37;;;;;;;19.33;3.53;;;10.00;99.90;;;;;;5052876;28;20594;-51
2020/12/16 01:50:05;;;;;;;25.60;3.42;;;10.00;99.90;;;;;;5070869;28;20036;-49
2020/12/16 01:52:32;;;;;;;30.15;3.80;;;10.00;99.90;;;;;;5071050;28;20036;-49
2020/12/16 01:54:59;;;;;;;25.73;3.55;;;10.00;99.90;;;;;;5070503;28;20067;-50
2020/12/16 01:57:26;;;;;;;27.60;3.30;;;9.90;99.90;;;;;;5071251;28;20040;-48
2020/12/16 01:59:52;;;;;;;35.08;3.92;;;9.90;99.90;;;;;;5071043;28;20036;-50
2020/12/16 02:02:24;;;;;;;28.90;3.50;;;9.90;99.90;;;;;;5070765;28;20620;-49
2020/12/16 02:04:50;;;;;;;29.02;4.70;;;9.90;99.90;;;;;;5070789;28;20033;-51
2020/12/16 02:07:16;;;;;;;21.70;3.22;;;9.90;99.90;;;;;;5071020;28;20107;-51
2020/12/16 02:09:46;;;;;;;32.00;3.85;;;10.00;99.90;;;;;;5070332;28;20024;-49
2020/12/16 02:12:24;;;;;;;33.78;3.50;;;10.10;99.90;;;;;;5070495;28;20427;-50
2020/12/16 02:14:50;;;;;;;22.70;3.55;;;10.00;99.90;;;;;;5070352;28;20155;-49
2020/12/16 02:17:16;;;;;;;21.27;3.60;;;10.00;99.90;;;;;;5070520;28;20037;-50
2020/12/16 02:20:05;;;;;;;26.52;3.67;;;9.90;99.90;;;;;;5070135;28;20098;-49
2020/12/16 02:22:31;;;;;;;26.15;3.90;;;9.90;99.90;;;;;;5070806;28;20071;-48
2020/12/16 02:25:12;;;;;;;19.63;3.22;;;9.90;99.90;;;;;;5069566;28;20040;-53
2020/12/16 02:27:40;;;;;;;29.90;3.50;;;9.90;99.90;;;;;;5069861;28;20037;-50
2020/12/16 02:30:08;;;;;;;28.42;3.40;;;10.00;99.90;;;;;;5069306;28;20039;-50
2020/12/16 02:32:34;;;;;;;24.65;3.65;;;9.90;99.90;;;;;;5068824;28;20058;-51
2020/12/16 02:35:00;;;;;;;19.27;3.53;;;9.90;99.90;;;;;;5070587;28;20401;-50
2020/12/16 02:37:26;;;;;;;29.50;3.70;;;9.90;99.90;;;;;;5070552;28;20167;-50
2020/12/16 02:39:52;;;;;;;21.25;3.58;;;10.00;99.90;;;;;;5070914;28;20032;-49
2020/12/16 02:42:24;;;;;;;25.35;3.78;;;9.90;99.90;;;;;;5071180;28;20044;-51
2020/12/16 02:44:50;;;;;;;34.05;4.22;;;10.00;99.90;;;;;;5070735;28;20051;-50
2020/12/16 02:47:16;;;;;;;33.90;3.88;;;10.00;99.90;;;;;;5088902;28;20147;-50
2020/12/16 02:49:41;;;;;;;25.77;3.92;;;9.90;99.90;;;;;;5090663;28;20131;-50
2020/12/16 02:52:07;;;;;;;32.70;3.88;;;9.90;99.90;;;;;;5087889;28;20075;-51
2020/12/16 02:54:33;;;;;;;29.50;4.15;;;9.90;99.90;;;;;;5091688;28;20090;-49
2020/12/16 02:56:58;;;;;;;25.63;3.38;;;9.80;99.90;;;;;;5091704;28;20024;-49
2020/12/16 02:59:26;;;;;;;31.02;3.83;;;9.80;99.90;;;;;;5073095;28;20051;-49
2020/12/16 03:01:53;;;;;;;24.25;3.25;;;9.80;99.90;;;;;;5091546;28;20035;-52
2020/12/16 03:04:21;;;;;;;20.25;3.63;;;9.80;99.90;;;;;;5091503;28;20028;-50
2020/12/16 03:06:54;;;;;;;26.73;3.78;;;9.90;99.90;;;;;;5091452;28;20027;-50
2020/12/16 03:09:25;;;;;;;18.65;3.90;;;9.80;99.90;;;;;;5090543;28;20040;-50
2020/12/16 03:11:51;;;;;;;43.75;4.28;;;9.80;99.90;;;;;;5091224;28;20051;-51
2020/12/16 03:14:17;;;;;;;25.75;3.08;;;9.70;99.90;;;;;;5072400;28;20111;-50
2020/12/16 03:16:43;;;;;;;32.95;3.45;;;9.80;99.90;;;;;;5089603;28;20120;-52
2020/12/16 03:19:08;;;;;;;33.28;4.05;;;9.80;99.90;;;;;;5090791;28;20103;-50
2020/12/16 03:21:34;;;;;;;29.50;3.67;;;9.90;99.90;;;;;;5077774;28;20049;-51
2020/12/16 03:24:00;;;;;;;25.23;3.65;;;9.80;99.90;;;;;;5070611;28;20393;-49
2020/12/16 03:26:26;;;;;;;28.20;3.67;;;9.90;99.90;;;;;;5071080;28;20082;-50
2020/12/16 03:28:51;;;;;;;30.13;4.63;;;9.90;99.90;;;;;;5071331;28;20037;-51
2020/12/16 03:31:17;;;;;;;30.13;3.85;;;9.90;99.90;;;;;;5071135;28;20042;-50
2020/12/16 03:33:44;;;;;;;23.80;4.03;;;9.90;99.90;;;;;;5070724;28;20087;-50
2020/12/16 03:36:16;;;;;;;26.60;4.03;;;9.90;99.90;;;;;;5070964;28;20039;-50
2020/12/16 03:38:43;;;;;;;36.13;4.17;;;9.90;99.90;;;;;;5071006;28;20082;-51
2020/12/16 03:41:09;;;;;;;23.10;4.07;;;9.80;99.90;;;;;;5070388;28;20265;-50
2020/12/16 03:43:35;;;;;;;29.38;3.63;;;9.80;99.90;;;;;;5052606;28;20395;-50
2020/12/16 03:46:00;;;;;;;29.60;3.80;;;9.80;99.90;;;;;;5069577;28;20028;-52
2020/12/16 03:48:26;;;;;;;35.13;4.88;;;9.80;99.90;;;;;;5070523;28;20520;-50
2020/12/16 03:50:52;;;;;;;29.10;3.78;;;9.80;99.90;;;;;;5070643;28;20033;-49
2020/12/16 03:53:18;;;;;;;32.70;3.88;;;9.80;99.90;;;;;;5070580;28;20085;-51
2020/12/16 03:55:44;;;;;;;26.42;4.10;;;9.80;99.90;;;;;;5070178;28;20031;-50
2020/12/16 03:58:09;;;;;;;32.63;3.40;;;9.80;99.90;;;;;;5070352;28;20024;-50
2020/12/16 04:00:35;;;;;;;32.03;4.05;;;9.90;99.90;;;;;;5070136;28;20028;-50
2020/12/16 04:03:01;;;;;;;25.77;4.40;;;9.90;99.90;;;;;;5069327;28;20029;-48
2020/12/16 04:05:26;;;;;;;31.30;4.18;;;9.90;99.90;;;;;;5069998;28;20032;-51
2020/12/16 04:07:52;;;;;;;28.00;3.42;;;9.80;99.90;;;;;;5070011;28;20032;-50
2020/12/16 04:10:17;;;;;;;30.60;3.60;;;9.80;99.90;;;;;;5069902;28;20162;-50
2020/12/16 04:12:43;;;;;;;28.48;3.80;;;9.80;99.90;;;;;;5069528;28;20122;-49
2020/12/16 04:15:09;;;;;;;36.22;4.30;;;9.80;99.90;;;;;;5068957;28;20039;-51
2020/12/16 04:17:35;;;;;;;30.92;4.72;;;9.70;99.90;;;;;;5069704;28;20352;-50
2020/12/16 04:20:03;;;;;;;21.00;3.33;;;9.70;99.90;;;;;;5069737;28;20116;-51
2020/12/16 04:22:29;;;;;;;33.75;5.43;;;9.70;99.90;;;;;;5069292;28;20060;-48
2020/12/16 04:24:55;;;;;;;23.13;3.72;;;9.70;99.90;;;;;;5069578;28;20032;-50
2020/12/16 04:27:21;;;;;;;36.60;4.28;;;9.80;99.90;;;;;;5069530;28;20487;-51
2020/12/16 04:29:47;;;;;;;40.47;4.85;;;9.80;99.90;;;;;;5069408;28;20031;-49
2020/12/16 04:32:14;;;;;;;29.25;4.43;;;9.80;99.90;;;;;;5069408;28;20086;-51
2020/12/16 04:34:40;;;;;;;27.30;3.90;;;9.90;99.90;;;;;;5069099;28;20742;-52
2020/12/16 04:37:06;;;;;;;28.80;3.90;;;9.90;99.90;;;;;;5068205;28;20086;-48
2020/12/16 04:39:31;;;;;;;40.67;4.80;;;10.00;99.90;;;;;;5069437;28;20029;-51
2020/12/16 04:41:57;;;;;;;28.30;3.83;;;10.00;99.90;;;;;;5069414;28;20032;-50
2020/12/16 04:44:23;;;;;;;25.27;4.40;;;10.00;99.90;;;;;;5069261;28;20099;-49
2020/12/16 04:46:49;;;;;;;26.33;3.95;;;9.90;99.90;;;;;;5069404;28;20107;-49
2020/12/16 04:49:15;;;;;;;25.52;4.25;;;9.90;99.90;;;;;;5071284;28;20071;-49
2020/12/16 04:51:43;;;;;;;30.27;3.80;;;9.90;99.90;;;;;;5051152;28;20028;-49
2020/12/16 04:54:10;;;;;;;31.75;4.60;;;9.80;99.90;;;;;;5069002;28;20126;-50
2020/12/16 04:56:36;;;;;;;32.58;6.68;;;9.80;99.90;;;;;;5068882;28;20032;-50
2020/12/16 04:59:06;;;;;;;25.30;3.88;;;9.80;99.90;;;;;;5050986;28;20477;-49
2020/12/16 05:01:37;;;;;;;29.77;3.50;;;9.80;99.90;;;;;;5069247;28;20024;-50
2020/12/16 05:04:03;;;;;;;32.17;4.28;;;9.80;99.90;;;;;;5069667;28;20086;-51
2020/12/16 05:06:38;;;;;;;28.10;3.72;;;9.80;99.90;;;;;;5069176;28;20032;-50
2020/12/16 05:09:09;;;;;;;19.77;4.28;;;9.70;99.90;;;;;;5069047;28;20370;-51
2020/12/16 05:11:37;;;;;;;22.13;5.15;;;9.70;99.90;;;;;;5050763;28;20352;-49
2020/12/16 05:14:32;;;;;;;30.48;3.75;;;9.70;99.90;;;;;;5068727;28;20039;-52
2020/12/16 05:17:03;;;;;;;21.70;3.90;;;9.70;99.90;;;;;;5056701;28;20040;-49
2020/12/16 05:19:30;;;;;;;35.50;4.88;;;9.70;99.90;;;;;;5079626;28;20081;-51
2020/12/16 05:22:14;;;;;;;23.40;4.50;;;9.70;99.90;;;;;;5068527;28;20401;-49
2020/12/16 05:24:40;;;;;;;39.35;4.50;;;9.60;99.90;;;;;;5069495;28;20158;-49
2020/12/16 05:27:23;;;;;;;23.75;5.22;;;9.60;99.90;;;;;;5089193;28;20554;-50
2020/12/16 05:29:57;;;;;;;33.78;4.40;;;9.60;99.90;;;;;;5088431;28;20048;-51
2020/12/16 05:32:25;;;;;;;;;;;9.50;99.90;;;;;;5089212;28;20104;-49
2020/12/16 05:34:51;;;;;;;41.28;4.65;;;9.50;99.90;;;;;;5088777;28;19971;-48
2020/12/16 05:37:24;;;;;;;33.03;4.72;;;9.50;99.90;;;;;;5088884;28;20111;-49
2020/12/16 05:39:54;;;;;;;29.52;5.20;;;9.50;99.90;;;;;;5088632;28;20039;-51
2020/12/16 05:42:22;;;;;;;30.73;4.90;;;9.50;99.90;;;;;;5088364;28;20135;-50
2020/12/16 05:44:48;;;;;;;25.92;4.15;;;9.50;99.90;;;;;;5075452;28;20037;-52
2020/12/16 05:47:13;;;;;;;28.98;4.57;;;9.40;99.90;;;;;;5065398;28;20047;-49
2020/12/16 05:49:39;;;;;;;32.60;4.93;;;9.50;99.90;;;;;;5065991;28;20119;-50
2020/12/16 05:52:06;;;;;;;23.13;4.63;;;9.50;99.90;;;;;;5067789;28;20105;-48
2020/12/16 05:54:35;;;;;;;41.25;5.35;;;9.50;99.90;;;;;;5067490;28;20021;-50
2020/12/16 05:57:21;;;;;;;34.58;5.22;;;9.40;99.90;;;;;;5067528;28;20394;-50
2020/12/16 06:00:09;;;;;;;27.00;4.13;;;9.40;99.90;;;;;;5067275;28;20140;-50
2020/12/16 06:02:40;;;;;;;21.70;4.57;;;9.40;99.90;;;;;;5067983;28;20067;-50
2020/12/16 06:05:12;;;;;;;38.28;4.95;;;9.40;99.90;;;;;;5086539;28;20068;-53
2020/12/16 06:07:40;;;;;;;32.47;5.30;;;9.40;99.90;;;;;;5079689;28;20060;-50
2020/12/16 06:10:07;;;;;;;32.40;4.90;;;9.40;99.90;;;;;;5067076;28;20033;-51
2020/12/16 06:12:38;;;;;;;29.35;5.05;;;9.40;99.90;;;;;;5066082;28;20044;-49
2020/12/16 06:15:07;;;;;;;34.58;5.30;;;9.40;99.90;;;;;;5066112;28;20064;-49
2020/12/16 06:17:38;;;;;;;26.10;4.75;;;9.40;99.90;;;;;;5066702;28;20064;-51
2020/12/16 06:20:06;;;;;;;38.35;5.53;;;9.40;99.90;;;;;;5066464;28;20024;-50
2020/12/16 06:22:36;;;;;;;36.75;5.50;;;9.40;99.90;;;;;;5066028;28;20051;-52
2020/12/16 06:25:05;;;;;;;28.17;4.65;;;9.40;99.90;;;;;;5065965;28;20111;-50
2020/12/16 06:27:51;;;;;;;35.15;5.20;;;9.40;99.90;;;;;;5069552;28;20044;-50
2020/12/16 06:30:25;;;;;;;37.28;5.43;;;9.40;99.90;;;;;;5070268;28;20060;-51
2020/12/16 06:33:02;;;;;;;39.53;5.63;;;9.40;99.90;;;;;;5089526;28;20055;-50
2020/12/16 06:35:28;;;;;;;35.35;6.07;;;9.40;99.90;;;;;;5083140;28;20040;-52
2020/12/16 06:38:21;;;;;;;38.28;6.30;;;9.30;99.90;;;;;;5083722;28;20029;-52
2020/12/16 06:40:48;;;;;;;;;;;9.30;99.90;;;;;;5075314;28;20060;-52
2020/12/16 06:43:32;;;;;;;32.28;4.82;;;9.40;99.90;;;;;;5069737;28;19943;-53
2020/12/16 06:46:03;;;;;;;27.85;4.82;;;9.30;99.90;;;;;;5080647;28;20032;-52
2020/12/16 06:48:36;;;;;;;35.47;5.70;;;9.40;99.90;;;;;;5089787;28;20315;-50
2020/12/16 06:51:25;;;;;;;25.70;4.72;;;9.40;99.90;;;;;;5089849;28;20026;-49
2020/12/16 06:54:15;;;;;;;32.60;5.50;;;9.40;99.90;;;;;;5069418;28;20059;-50
2020/12/16 06:56:42;;;;;;;27.75;5.38;;;9.40;99.90;;;;;;5060055;28;20033;-49
2020/12/16 06:59:08;;;;;;;22.35;4.18;;;9.40;99.90;;;;;;5080680;28;20701;-49
2020/12/16 07:01:34;;;;;;;46.15;5.45;;;9.40;99.90;;;;;;5089609;28;20500;-52
2020/12/16 07:04:01;;;;;;;43.05;6.35;;;9.40;99.90;;;;;;5070594;28;20026;-51
2020/12/16 07:06:29;;;;;;;33.15;5.95;;;9.40;99.90;;;;;;5069369;28;20058;-50
2020/12/16 07:09:16;;;;;;;33.53;5.10;;;9.40;99.90;;;;;;5069339;28;20756;-54
2020/12/16 07:11:46;;;;;;;22.45;4.22;;;9.30;99.90;;;;;;5076141;28;20035;-49
2020/12/16 07:14:14;;;;;;;27.92;5.22;;;9.30;99.90;;;;;;5079892;28;20028;-51
2020/12/16 07:16:41;;;;;;;43.63;5.97;;;9.40;99.90;;;;;;5078425;28;20103;-50
2020/12/16 07:19:07;;;;;;;37.53;4.80;;;9.40;99.90;;;;;;5070124;28;20115;-51
2020/12/16 07:21:35;;;;;;;29.40;4.75;;;9.40;99.90;;;;;;5068460;28;20056;-49
2020/12/16 07:24:11;;;;;;;29.58;5.78;;;9.40;99.90;;;;;;5070705;28;20028;-52
2020/12/16 07:26:47;;;;;;;46.92;5.90;;;9.40;99.90;;;;;;5050269;28;20520;-50
2020/12/16 07:29:27;;;;;;;31.17;5.03;;;9.30;99.90;;;;;;5068505;28;20470;-50
2020/12/16 07:31:55;;;;;;;30.92;5.63;;;9.30;99.90;;;;;;5068009;28;20037;-49
2020/12/16 07:34:21;;;;;;;34.25;4.88;;;9.30;99.90;;;;;;5069070;28;20091;-51
2020/12/16 07:36:53;;;;;;;34.58;4.60;;;9.30;99.90;;;;;;5080141;28;20059;-51
2020/12/16 07:39:19;;;;;;;42.13;5.22;;;9.30;99.90;;;;;;5083108;28;20034;-50
2020/12/16 07:41:45;;;;;;;36.38;4.93;;;9.40;99.90;;;;;;5086736;28;20400;-52
2020/12/16 07:44:11;;;;;;;32.10;4.95;;;9.40;99.90;;;;;;5083184;28;20024;-49
2020/12/16 07:46:37;;;;;;;49.67;5.82;;;9.40;99.90;;;;;;5086260;28;20024;-54
2020/12/16 07:49:03;;;;;;;44.25;4.63;;;9.40;99.90;;;;;;5073308;28;20078;-50
2020/12/16 07:51:29;;;;;;;33.53;4.35;;;9.40;99.90;;;;;;5086940;28;20078;-49
2020/12/16 07:53:55;;;;;;;26.65;4.40;;;9.50;99.90;;;;;;5074627;28;20078;-50
2020/12/16 07:56:21;;;;;;;28.30;4.00;;;9.50;99.90;;;;;;5086971;28;20052;-52
2020/12/16 07:58:47;;;;;;;23.80;4.22;;;9.50;99.90;;;;;;5086812;28;20020;-49
2020/12/16 08:01:15;;;;;;;30.90;4.18;;;9.60;99.90;;;;;;5083159;28;20090;-50
2020/12/16 08:03:42;;;;;;;34.92;4.20;;;9.60;99.90;;;;;;5081863;28;20058;-51
2020/12/16 08:06:09;;;;;;;28.70;4.20;;;9.60;99.90;;;;;;5083892;28;20028;-50
2020/12/16 08:08:51;;;;;;;28.42;5.32;;;9.60;99.90;;;;;;5079474;28;20123;-50
2020/12/16 08:11:21;;;;;;;33.80;4.68;;;9.60;99.90;;;;;;5085641;28;20032;-49
2020/12/16 08:13:48;;;;;;;28.02;4.00;;;9.50;99.90;;;;;;5076052;28;20059;-49
2020/12/16 08:16:15;;;;;;;28.38;4.45;;;9.50;99.90;;;;;;5072557;28;20407;-49
2020/12/16 08:18:47;;;;;;;29.40;4.13;;;9.60;99.90;;;;;;5056102;28;20035;-50
2020/12/16 08:21:23;;;;;;;26.42;4.28;;;9.60;99.90;;;;;;5085381;28;20199;-49
2020/12/16 08:23:50;;;;;;;24.08;4.32;;;9.60;99.90;;;;;;5074482;28;20114;-50
2020/12/16 08:26:21;;;;;;;31.40;5.22;;;9.50;99.90;;;;;;5087743;28;20032;-51
2020/12/16 08:28:47;;;;;;;29.33;4.53;;;9.50;99.90;;;;;;5078879;28;20123;-52
2020/12/16 08:31:18;;;;;;;26.52;3.50;;;9.50;99.90;;;;;;5087759;28;20815;-50
2020/12/16 08:33:46;;;;;;;24.92;4.45;;;9.50;99.90;;;;;;5071892;28;20041;-52
2020/12/16 08:36:19;;;;;;;36.20;4.90;;;9.50;99.90;;;;;;5067821;28;20020;-49
2020/12/16 08:38:47;;;;;;;48.40;5.25;;;9.50;99.90;;;;;;5067387;28;20137;-51
2020/12/16 08:41:22;;;;;;;32.15;5.25;;;9.50;99.90;;;;;;5067599;28;20050;-49
2020/12/16 08:43:48;;;;;;;25.73;3.85;;;9.50;99.90;;;;;;5067591;28;20025;-50
2020/12/16 08:46:17;;;;;;;27.67;4.28;;;9.50;99.90;;;;;;5069970;28;20071;-50
2020/12/16 08:48:59;;;;;;;33.42;5.40;;;9.40;99.90;;;;;;5068621;28;20029;-48
2020/12/16 08:51:37;;;;;;;29.50;6.40;;;9.50;99.90;;;;;;5070027;28;20527;-49
2020/12/16 08:54:06;;;;;;;32.42;4.63;;;9.40;99.90;;;;;;5075248;28;20045;-50
2020/12/16 08:56:36;;;;;;;31.98;4.78;;;9.50;99.90;;;;;;5064741;28;20187;-51
2020/12/16 08:59:06;;;;;;;39.28;4.80;;;9.50;99.90;;;;;;5068368;28;20032;-51
2020/12/16 09:01:33;;;;;;;37.92;4.43;;;9.50;99.90;;;;;;5085960;28;20055;-47
2020/12/16 09:04:00;;;;;;;22.15;3.83;;;9.50;99.90;;;;;;5085458;28;20077;-48
2020/12/16 09:06:25;;;;;;;29.02;4.43;;;9.60;99.90;;;;;;5086078;28;20143;-52
2020/12/16 09:08:51;;;;;;;31.20;4.05;;;9.60;99.90;;;;;;5085628;28;20452;-48
2020/12/16 09:11:21;;;;;;;28.65;4.22;;;9.60;99.90;;;;;;5084091;28;20451;-49
2020/12/16 09:13:48;;;;;;;26.00;5.20;;;9.60;99.90;;;;;;5071052;28;20053;-48
2020/12/16 09:16:25;;;;;;;32.80;4.65;;;9.70;99.90;;;;;;5069164;28;20482;-49
2020/12/16 09:18:52;;;;;;;26.23;4.30;;;9.70;99.90;;;;;;5066760;28;20032;-48
2020/12/16 09:21:31;;;;;;;22.60;4.63;;;9.70;99.90;;;;;;5066372;28;20115;-49
2020/12/16 09:23:57;;;;;;;26.10;4.75;;;9.80;99.90;;;;;;5066480;28;20039;-48
2020/12/16 09:26:37;;;;;;;20.90;3.53;;;9.80;99.90;;;;;;5066303;28;20584;-51
2020/12/16 09:29:29;;;;;;;26.65;4.43;;;9.80;99.90;;;;;;5066156;28;20040;-50
2020/12/16 09:32:09;;;;;;;27.75;4.63;;;9.80;99.90;;;;;;5066468;28;20032;-49
2020/12/16 09:34:50;;;;;;;55.35;5.97;;;9.80;99.90;;;;;;5066231;28;20398;-49
2020/12/16 09:37:18;;;;;;;38.78;4.90;;;9.80;99.90;;;;;;5069138;28;20102;-49
2020/12/16 09:39:45;;;;;;;31.30;4.07;;;9.80;99.90;;;;;;5086399;28;20051;-50
2020/12/16 09:42:13;;;;;;;27.13;4.13;;;9.90;99.90;;;;;;5086284;28;20036;-49
2020/12/16 09:44:40;;;;;;;34.13;4.45;;;9.90;99.90;;;;;;5086554;28;20079;-49
2020/12/16 09:47:13;;;;;;;33.85;4.45;;;9.90;99.90;;;;;;5068454;28;20388;-50
2020/12/16 09:49:40;;;;;;;28.15;4.35;;;9.90;99.90;;;;;;5086416;28;20036;-49
2020/12/16 09:52:26;;;;;;;24.50;4.05;;;10.00;99.90;;;;;;5086492;28;20040;-49
2020/12/16 09:54:52;;;;;;;34.63;4.55;;;10.00;99.90;;;;;;5086815;28;20486;-48
2020/12/16 09:57:21;;;;;;;32.63;4.50;;;10.10;99.90;;;;;;5086790;28;20042;-51
2020/12/16 09:59:47;;;;;;;29.17;4.05;;;10.00;99.90;;;;;;5085806;28;20038;-49
2020/12/16 10:02:13;;;;;;;24.58;3.53;;;10.00;99.90;;;;;;5089273;28;20116;-48
2020/12/16 10:04:38;;;;;;;33.75;4.22;;;10.10;99.90;;;;;;5089636;28;20122;-48
2020/12/16 10:07:06;;;;;;;40.75;5.13;;;10.10;99.90;;;;;;5090297;28;20103;-50
2020/12/16 10:09:35;;;;;;;23.00;4.07;;;10.10;99.90;;;;;;5089859;28;20031;-48
2020/12/16 10:12:02;;;;;;;31.65;4.88;;;10.20;99.90;;;;;;5089820;28;20020;-49
2020/12/16 10:14:28;;;;;;;30.83;5.75;;;10.20;99.90;;;;;;5070110;28;20401;-49
2020/12/16 10:16:53;;;;;;;27.38;4.07;;;10.30;99.90;;;;;;5069971;28;20028;-47
2020/12/16 10:19:20;;;;;;;21.83;3.55;;;10.30;99.90;;;;;;5076775;28;20028;-49
2020/12/16 10:21:48;;;;;;;32.50;4.20;;;10.40;99.90;;;;;;5089994;28;20078;-49
2020/12/16 10:24:16;;;;;;;17.80;4.32;;;10.40;99.90;;;;;;5079457;28;20058;-49
2020/12/16 10:26:46;;;;;;;30.15;4.97;;;10.50;99.90;;;;;;5053021;28;20035;-48
2020/12/16 10:29:11;;;;;;;18.80;3.17;;;10.50;99.90;;;;;;5069482;28;20103;-48
2020/12/16 10:31:37;;;;;;;28.92;4.15;;;10.50;99.90;;;;;;5070264;28;20043;-49
2020/12/16 10:34:03;;;;;;;24.58;4.15;;;10.60;99.90;;;;;;5077551;28;20482;-50
2020/12/16 10:36:30;;;;;;;32.75;5.00;;;10.60;99.90;;;;;;5089535;28;20028;-48
2020/12/16 10:38:56;;;;;;;25.60;4.15;;;10.60;99.90;;;;;;5072013;28;20040;-48
2020/12/16 10:41:21;;;;;;;22.38;3.75;;;10.70;99.90;;;;;;5069590;28;20482;-52
2020/12/16 10:43:47;;;;;;;20.33;3.53;;;10.70;99.90;;;;;;5071589;28;20094;-50
2020/12/16 10:46:13;;;;;;;34.75;4.40;;;10.70;99.90;;;;;;5069948;28;20375;-49
2020/12/16 10:48:39;;;;;;;36.88;5.03;;;10.70;99.90;;;;;;5069309;28;20035;-47
2020/12/16 10:51:04;;;;;;;31.58;4.40;;;10.60;99.90;;;;;;5069504;28;20037;-52
2020/12/16 10:53:32;;;;;;;26.48;4.03;;;10.60;99.90;;;;;;5051305;28;20111;-48
2020/12/16 10:55:58;;;;;;;24.15;3.47;;;10.70;99.90;;;;;;5069647;28;20442;-51
2020/12/16 10:58:24;;;;;;;31.60;4.50;;;10.70;99.90;;;;;;5069310;28;20033;-50
2020/12/16 11:00:50;;;;;;;27.88;4.85;;;10.70;99.90;;;;;;5068689;28;20029;-48
2020/12/16 11:03:15;;;;;;;28.38;4.78;;;10.80;99.90;;;;;;5069070;28;20035;-49
2020/12/16 11:05:41;;;;;;;32.50;4.50;;;10.90;99.90;;;;;;5051297;28;20120;-50
2020/12/16 11:08:07;;;;;;;31.30;4.38;;;11.00;99.90;;;;;;5051136;28;20036;-50
2020/12/16 11:10:33;;;;;;;24.63;4.85;;;11.00;99.90;;;;;;5071499;28;20397;-49
2020/12/16 11:12:58;;;;;;;22.80;3.63;;;11.00;99.90;;;;;;5068670;28;20059;-49
2020/12/16 11:15:24;;;;;;;29.77;4.55;;;11.00;99.90;;;;;;5068505;28;20143;-50
2020/12/16 11:17:50;;;;;;;26.70;3.70;;;11.00;99.90;;;;;;5068408;28;20524;-49
2020/12/16 11:20:16;;;;;;;40.92;5.88;;;11.10;99.90;;;;;;5068301;28;20074;-48
2020/12/16 11:22:41;;;;;;;27.83;4.38;;;11.10;99.90;;;;;;5068252;28;20053;-53
2020/12/16 11:25:07;;;;;;;23.23;4.45;;;11.10;99.90;;;;;;5068761;28;20044;-50
2020/12/16 11:27:33;;;;;;;20.58;3.80;;;11.10;99.90;;;;;;5050356;28;20078;-52
2020/12/16 11:29:59;;;;;;;26.90;4.43;;;11.20;99.90;;;;;;5068712;28;20039;-50
2020/12/16 11:32:24;;;;;;;18.58;4.07;;;11.20;99.90;;;;;;5068900;28;20041;-50
2020/12/16 11:34:50;;;;;;;30.67;4.80;;;11.20;99.90;;;;;;5068629;28;20124;-51
2020/12/16 11:37:16;;;;;;;32.88;4.07;;;11.30;99.90;;;;;;5068511;28;20088;-49
2020/12/16 11:39:42;;;;;;;34.58;4.82;;;11.30;99.90;;;;;;5068643;28;20055;-49
2020/12/16 11:42:08;;;;;;;27.88;5.22;;;11.30;99.90;;;;;;5069159;28;20040;-49
2020/12/16 11:44:35;;;;;;;35.92;5.75;;;11.40;99.90;;;;;;5068803;28;20090;-54
2020/12/16 11:47:03;;;;;;;28.52;4.70;;;11.40;99.90;;;;;;5068804;28;20107;-51
2020/12/16 11:49:29;;;;;;;31.42;4.57;;;11.60;99.90;;;;;;5068760;28;20111;-50
2020/12/16 11:51:55;;;;;;;26.73;4.03;;;11.70;99.90;;;;;;5068518;28;20108;-51
2020/12/16 11:54:22;;;;;;;29.90;4.53;;;11.70;99.90;;;;;;5068387;28;20028;-53
2020/12/16 11:56:48;;;;;;;33.47;4.95;;;11.80;99.90;;;;;;5068592;28;20033;-50
2020/12/16 11:59:14;;;;;;;20.95;3.90;;;12.10;99.90;;;;;;5049686;28;20036;-53
2020/12/16 12:01:41;;;;;;;27.00;4.40;;;12.20;99.90;;;;;;5067832;28;20033;-52
2020/12/16 12:04:07;;;;;;;29.42;4.38;;;12.30;99.90;;;;;;5067616;28;20036;-51
2020/12/16 12:06:32;;;;;;;32.97;4.68;;;12.30;99.90;;;;;;5068203;28;20094;-51
2020/12/16 12:08:58;;;;;;;31.38;4.35;;;12.30;99.90;;;;;;5068105;28;20155;-53
2020/12/16 12:11:24;;;;;;;26.80;4.05;;;12.40;99.90;;;;;;5068008;28;20097;-51
2020/12/16 12:13:51;;;;;;;18.65;3.47;;;12.50;99.90;;;;;;5067804;28;20043;-50
2020/12/16 12:16:17;;;;;;;37.22;5.75;;;12.50;99.90;;;;;;5067582;28;20037;-51
2020/12/16 12:18:44;;;;;;;36.83;6.65;;;12.80;99.90;;;;;;5067811;28;20028;-53
2020/12/16 12:21:11;;;;;;;39.72;4.53;;;12.90;99.90;;;;;;5067783;28;20049;-54
2020/12/16 12:23:37;;;;;;;30.33;4.30;;;13.10;99.90;;;;;;5067122;28;20097;-54
2020/12/16 12:26:04;;;;;;;23.92;3.97;;;13.40;99.90;;;;;;5068055;28;20474;-51
2020/12/16 12:28:30;;;;;;;26.23;4.13;;;13.50;99.90;;;;;;5067664;28;20051;-48
2020/12/16 12:30:56;;;;;;;18.35;4.15;;;13.50;99.90;;;;;;5067782;28;20032;-52
2020/12/16 12:33:22;;;;;;;34.10;4.32;;;13.50;99.90;;;;;;5049563;28;20051;-49
2020/12/16 12:35:47;;;;;;;17.45;3.80;;;13.30;99.90;;;;;;5067615;28;20054;-51
2020/12/16 12:38:14;;;;;;;29.40;5.78;;;13.30;99.90;;;;;;5067592;28;20079;-50
2020/12/16 12:40:40;;;;;;;30.20;4.35;;;13.20;99.90;;;;;;5067403;28;20024;-50
2020/12/16 12:43:06;;;;;;;27.40;4.20;;;13.10;99.90;;;;;;5067553;28;20036;-52
2020/12/16 12:45:32;;;;;;;18.52;4.22;;;13.10;99.90;;;;;;5067889;28;20033;-51
2020/12/16 12:47:59;;;;;;;35.63;6.15;;;12.90;99.90;;;;;;5067993;28;20356;-50